createdAt,value
2022-08-06T00:00:03.503Z,81.64
2022-08-06T00:02:25.859Z,81.60
2022-08-06T00:04:57.906Z,81.48
2022-08-06T00:07:28.125Z,81.68
2022-08-06T00:10:02.029Z,81.74
2022-08-06T00:12:33.540Z,81.38
2022-08-06T00:15:12.813Z,81.21
2022-08-06T00:17:42.490Z,81.35
2022-08-06T00:20:25.516Z,81.17
2022-08-06T00:22:59.552Z,80.90
2022-08-06T00:25:27.301Z,81.13
2022-08-06T00:27:57.373Z,81.61
2022-08-06T00:30:25.143Z,81.92
2022-08-06T00:32:53.289Z,82.20
2022-08-06T00:35:24.051Z,82.59
2022-08-06T00:37:59.119Z,83.12
2022-08-06T00:40:30.061Z,83.47
2022-08-06T00:43:06.095Z,83.57
2022-08-06T00:45:37.946Z,83.92
2022-08-06T00:48:31.414Z,83.98
2022-08-06T00:50:57.838Z,84.24
2022-08-06T00:53:34.460Z,83.92
2022-08-06T00:56:08.788Z,84.28
2022-08-06T00:58:41.348Z,84.37
2022-08-06T01:01:16.679Z,84.04
2022-08-06T01:03:52.043Z,84.02
2022-08-06T01:06:55.667Z,83.96
2022-08-06T01:09:08.681Z,84.08
2022-08-06T01:11:38.488Z,84.24
2022-08-06T01:14:09.997Z,83.90
2022-08-06T01:16:45.477Z,83.57
2022-08-06T01:21:21.899Z,83.61
2022-08-06T01:22:53.882Z,83.75
2022-08-06T01:25:47.161Z,83.43
2022-08-06T01:28:22.953Z,83.13
2022-08-06T01:31:03.233Z,82.91
2022-08-06T01:33:39.100Z,82.96
2022-08-06T01:36:11.918Z,82.69
2022-08-06T01:38:45.168Z,82.51
2022-08-06T01:41:58.380Z,82.54
2022-08-06T01:44:35.589Z,82.87
2022-08-06T01:47:16.227Z,83.14
2022-08-06T01:50:00.714Z,83.55
2022-08-06T01:52:34.801Z,83.56
2022-08-06T01:55:09.822Z,83.21
2022-08-06T01:58:19.255Z,82.73
2022-08-06T02:00:34.144Z,82.36
2022-08-06T02:03:05.432Z,81.79
2022-08-06T02:05:44.876Z,81.36
2022-08-06T02:08:38.025Z,81.16
2022-08-06T02:11:23.937Z,80.79
2022-08-06T02:14:01.018Z,80.72
2022-08-06T02:16:34.228Z,80.83
2022-08-06T02:19:10.364Z,80.98
2022-08-06T02:21:43.865Z,80.90
2022-08-06T02:24:19.767Z,80.49
2022-08-06T02:26:48.755Z,79.84
2022-08-06T02:29:21.105Z,79.45
2022-08-06T02:31:52.395Z,79.25
2022-08-06T02:34:26.896Z,79.19
2022-08-06T02:37:00.623Z,79.57
2022-08-06T02:39:47.674Z,79.79
2022-08-06T02:42:23.564Z,80.03
2022-08-06T02:45:01.749Z,80.38
2022-08-06T02:48:00.424Z,80.43
2022-08-06T02:50:29.879Z,80.80
2022-08-06T02:53:04.610Z,80.94
2022-08-06T02:55:40.470Z,81.38
2022-08-06T02:58:19.340Z,82.30
2022-08-06T03:00:59.961Z,82.89
2022-08-06T03:03:34.566Z,83.38
2022-08-06T03:06:06.864Z,83.53
2022-08-06T03:08:37.600Z,83.73
2022-08-06T03:11:07.683Z,84.21
2022-08-06T03:13:36.646Z,84.46
2022-08-06T03:16:23.437Z,84.59
2022-08-06T03:19:54.589Z,84.94
2022-08-06T03:21:55.902Z,85.43
2022-08-06T03:24:28.058Z,85.21
2022-08-06T03:26:59.518Z,85.22
2022-08-06T03:29:30.034Z,85.26
2022-08-06T03:32:13.421Z,85.52
2022-08-06T03:34:48.688Z,85.66
2022-08-06T03:37:21.839Z,85.98
2022-08-06T03:40:12.319Z,86.62
2022-08-06T03:42:43.936Z,86.38
2022-08-06T03:45:23.707Z,86.00
2022-08-06T03:48:07.834Z,85.98
2022-08-06T03:50:46.113Z,85.69
2022-08-06T03:53:20.942Z,85.13
2022-08-06T03:55:57.119Z,84.65
2022-08-06T03:58:28.479Z,83.80
2022-08-06T04:01:02.296Z,83.24
2022-08-06T04:03:39.356Z,82.90
2022-08-06T04:06:16.317Z,82.73
2022-08-06T04:08:48.657Z,82.77
2022-08-06T04:12:13.938Z,82.95
2022-08-06T04:14:08.979Z,83.30
2022-08-06T04:16:38.290Z,83.39
2022-08-06T04:19:09.342Z,83.59
2022-08-06T04:22:59.225Z,83.98
2022-08-06T04:24:32.379Z,84.59
2022-08-06T04:27:04.988Z,85.03
2022-08-06T04:29:57.285Z,85.20
2022-08-06T04:32:29.747Z,85.65
2022-08-06T04:36:05.603Z,85.52
2022-08-06T04:37:54.283Z,85.88
2022-08-06T04:40:34.879Z,86.01
2022-08-06T04:43:10.329Z,85.95
2022-08-06T04:46:17.060Z,85.70
2022-08-06T04:48:34.338Z,85.61
2022-08-06T04:51:10.232Z,85.62
2022-08-06T04:53:56.862Z,85.77
2022-08-06T04:56:29.574Z,85.86
2022-08-06T04:59:05.138Z,85.74
2022-08-06T05:01:53.130Z,85.79
2022-08-06T05:04:23.548Z,85.86
2022-08-06T05:06:58.202Z,85.65
2022-08-06T05:09:43.916Z,85.24
2022-08-06T05:12:22.899Z,85.16
2022-08-06T05:14:55.915Z,85.13
2022-08-06T05:17:29.683Z,85.09
2022-08-06T05:20:28.054Z,85.08
2022-08-06T05:23:03.693Z,85.05
2022-08-06T05:25:37.276Z,84.81
2022-08-06T05:28:11.320Z,84.47
2022-08-06T05:30:47.204Z,84.35
2022-08-06T05:33:26.491Z,84.72
2022-08-06T05:36:01.840Z,85.05
2022-08-06T05:38:35.961Z,85.19
2022-08-06T05:41:07.452Z,84.86
2022-08-06T05:44:00.222Z,84.42
2022-08-06T05:46:25.657Z,83.94
2022-08-06T05:49:02.285Z,83.26
2022-08-06T05:51:45.867Z,82.99
2022-08-06T05:54:21.726Z,82.89
2022-08-06T05:56:54.197Z,83.23
2022-08-06T05:59:38.411Z,83.30
2022-08-06T06:02:16.615Z,83.16
2022-08-06T06:05:00.690Z,82.39
2022-08-06T06:08:07.932Z,82.13
2022-08-06T06:10:26.980Z,82.27
2022-08-06T06:12:57.193Z,82.48
2022-08-06T06:15:59.030Z,82.86
2022-08-06T06:18:34.817Z,83.55
2022-08-06T06:21:17.453Z,83.84
2022-08-06T06:24:07.200Z,83.85
2022-08-06T06:26:41.929Z,83.38
2022-08-06T06:29:33.858Z,83.12
2022-08-06T06:32:30.601Z,82.61
2022-08-06T06:35:07.164Z,82.07
2022-08-06T06:37:41.922Z,81.39
2022-08-06T06:40:29.053Z,79.34
2022-08-06T06:43:03.111Z,76.59
2022-08-06T06:46:05.176Z,75.46
2022-08-06T06:48:37.021Z,73.86
2022-08-06T06:51:27.105Z,70.58
2022-08-06T06:54:09.003Z,64.90
2022-08-06T06:56:44.161Z,61.34
2022-08-06T06:59:17.292Z,60.18
2022-08-06T07:01:53.958Z,59.75
2022-08-06T07:04:26.819Z,57.99
2022-08-06T07:06:59.920Z,56.10
2022-08-06T07:09:40.904Z,52.62
2022-08-06T07:12:24.372Z,50.39
2022-08-06T07:15:01.151Z,49.32
2022-08-06T07:17:45.303Z,46.80
2022-08-06T07:20:26.115Z,45.45
2022-08-06T07:24:03.870Z,43.75
2022-08-06T07:25:54.511Z,42.37
2022-08-06T07:28:27.788Z,41.05
2022-08-06T07:31:04.146Z,39.81
2022-08-06T07:34:01.109Z,38.28
2022-08-06T07:36:29.386Z,38.93
2022-08-06T07:39:01.301Z,39.30
2022-08-06T07:42:06.936Z,39.74
2022-08-06T07:44:22.507Z,39.88
2022-08-06T07:47:01.245Z,39.63
2022-08-06T07:49:59.915Z,38.36
2022-08-06T07:52:29.707Z,37.66
2022-08-06T07:55:01.244Z,37.28
2022-08-06T07:57:32.812Z,36.50
2022-08-06T08:00:17.696Z,36.13
2022-08-06T08:03:07.264Z,35.10
2022-08-06T08:06:00.824Z,33.84
2022-08-06T08:08:31.508Z,33.15
2022-08-06T08:11:01.988Z,33.04
2022-08-06T08:13:41.560Z,32.05
2022-08-06T08:16:19.862Z,32.14
2022-08-06T08:18:48.572Z,31.88
2022-08-06T08:21:22.021Z,30.85
2022-08-06T08:23:55.539Z,30.58
2022-08-06T08:26:25.066Z,30.58
2022-08-06T08:28:53.497Z,29.91
2022-08-06T08:31:26.523Z,30.17
2022-08-06T08:33:54.920Z,28.97
2022-08-06T08:36:30.222Z,28.42
2022-08-06T08:39:00.087Z,27.94
2022-08-06T08:41:48.213Z,27.83
2022-08-06T08:44:26.637Z,27.38
2022-08-06T08:46:58.939Z,27.69
2022-08-06T08:49:34.744Z,26.63
2022-08-06T08:52:11.357Z,27.30
2022-08-06T08:54:43.293Z,27.29
2022-08-06T08:58:38.182Z,27.15
2022-08-06T09:00:02.437Z,26.93
2022-08-06T09:02:30.992Z,27.02
2022-08-06T09:04:59.913Z,26.78
2022-08-06T09:07:35.551Z,26.75
2022-08-06T09:10:06.376Z,27.24
2022-08-06T09:12:44.859Z,27.12
2022-08-06T09:15:14.487Z,26.67
2022-08-06T09:18:10.821Z,26.49
2022-08-06T09:20:36.402Z,26.83
2022-08-06T09:23:07.687Z,26.40
2022-08-06T09:25:49.804Z,25.67
2022-08-06T09:28:35.601Z,25.48
2022-08-06T09:31:10.664Z,25.29
2022-08-06T09:34:18.777Z,24.89
2022-08-06T09:36:49.273Z,25.07
2022-08-06T09:39:32.139Z,24.42
2022-08-06T09:42:38.879Z,24.63
2022-08-06T09:45:15.732Z,25.18
2022-08-06T09:47:47.363Z,24.65
2022-08-06T09:50:39.129Z,24.30
2022-08-06T09:53:14.617Z,24.95
2022-08-06T09:55:46.492Z,24.87
2022-08-06T09:58:14.413Z,25.10
2022-08-06T10:00:42.213Z,25.28
2022-08-06T10:04:03.396Z,25.46
2022-08-06T10:06:10.563Z,25.44
2022-08-06T10:08:39.592Z,25.45
2022-08-06T10:11:09.108Z,25.59
2022-08-06T10:13:43.888Z,25.12
2022-08-06T10:16:19.940Z,24.95
2022-08-06T10:18:54.793Z,25.00
2022-08-06T10:21:33.380Z,25.61
2022-08-06T10:24:11.403Z,25.89
2022-08-06T10:26:44.802Z,25.60
2022-08-06T10:29:14.607Z,25.65
2022-08-06T10:31:42.812Z,26.00
2022-08-06T10:34:12.543Z,26.00
2022-08-06T10:36:45.285Z,26.41
2022-08-06T10:40:06.769Z,26.32
2022-08-06T10:42:18.236Z,26.71
2022-08-06T10:44:51.462Z,27.25
2022-08-06T10:48:59.147Z,27.19
2022-08-06T10:50:25.621Z,26.80
2022-08-06T10:53:00.114Z,27.68
2022-08-06T10:55:37.670Z,27.19
2022-08-06T10:58:15.284Z,27.10
2022-08-06T11:00:56.038Z,26.62
2022-08-06T11:03:43.034Z,26.02
2022-08-06T11:06:27.797Z,25.43
2022-08-06T11:09:12.776Z,26.03
2022-08-06T11:12:06.122Z,25.15
2022-08-06T11:14:39.516Z,26.19
2022-08-06T11:17:11.529Z,26.02
2022-08-06T11:19:46.866Z,25.83
2022-08-06T11:22:36.166Z,24.88
2022-08-06T11:25:25.276Z,26.16
2022-08-06T11:27:59.190Z,26.40
2022-08-06T11:30:41.768Z,25.87
2022-08-06T11:33:16.617Z,26.69
2022-08-06T11:35:51.887Z,26.78
2022-08-06T11:38:58.273Z,27.00
2022-08-06T11:41:55.079Z,27.64
2022-08-06T11:44:18.679Z,27.20
2022-08-06T11:47:30.715Z,26.58
2022-08-06T11:50:07.183Z,27.03
2022-08-06T11:52:42.605Z,26.29
2022-08-06T11:55:23.074Z,26.39
2022-08-06T11:57:53.102Z,26.62
2022-08-06T12:00:23.561Z,26.61
2022-08-06T12:02:59.685Z,26.88
2022-08-06T12:05:57.110Z,27.24
2022-08-06T12:08:41.797Z,27.38
2022-08-06T12:11:37.261Z,27.03
2022-08-06T12:14:33.685Z,27.50
2022-08-06T12:16:58.629Z,28.18
2022-08-06T12:19:33.000Z,28.12
2022-08-06T12:22:01.449Z,26.98
2022-08-06T12:24:45.180Z,28.21
2022-08-06T12:27:24.298Z,27.80
2022-08-06T12:29:57.629Z,27.67
2022-08-06T12:32:29.197Z,27.85
2022-08-06T12:35:01.392Z,28.05
2022-08-06T12:37:41.253Z,27.14
2022-08-06T12:40:29.123Z,28.16
2022-08-06T12:43:15.373Z,28.41
2022-08-06T12:46:05.301Z,27.59
2022-08-06T12:48:32.846Z,28.54
2022-08-06T12:51:11.649Z,28.17
2022-08-06T12:53:47.929Z,28.34
2022-08-06T12:56:31.982Z,28.15
2022-08-06T12:59:04.289Z,28.22
2022-08-06T13:02:08.795Z,28.17
2022-08-06T13:04:30.325Z,28.64
2022-08-06T13:07:05.052Z,28.24
2022-08-06T13:09:56.254Z,28.82
2022-08-06T13:12:44.907Z,28.40
2022-08-06T13:15:18.417Z,29.19
2022-08-06T13:18:13.130Z,29.50
2022-08-06T13:20:57.155Z,29.76
2022-08-06T13:23:34.335Z,29.85
2022-08-06T13:26:15.967Z,29.16
2022-08-06T13:30:29.468Z,29.53
2022-08-06T13:32:11.321Z,29.77
2022-08-06T13:34:57.592Z,28.83
2022-08-06T13:37:54.252Z,28.52
2022-08-06T13:40:46.968Z,29.27
2022-08-06T13:43:40.222Z,29.71
2022-08-06T13:46:15.513Z,29.77
2022-08-06T13:48:49.687Z,29.53
2022-08-06T13:51:22.537Z,30.08
2022-08-06T13:53:57.888Z,29.98
2022-08-06T13:56:30.107Z,30.06
2022-08-06T13:59:00.610Z,29.80
2022-08-06T14:01:44.170Z,30.17
2022-08-06T14:04:15.290Z,30.31
2022-08-06T14:06:46.745Z,30.04
2022-08-06T14:09:19.520Z,30.76
2022-08-06T14:11:54.524Z,30.96
2022-08-06T14:14:25.283Z,30.88
2022-08-06T14:16:56.628Z,30.63
2022-08-06T14:20:14.270Z,30.69
2022-08-06T14:22:12.890Z,31.25
2022-08-06T14:24:40.737Z,31.37
2022-08-06T14:27:24.286Z,31.50
2022-08-06T14:30:26.792Z,31.52
2022-08-06T14:32:40.611Z,31.26
2022-08-06T14:35:09.263Z,31.52
2022-08-06T14:37:52.171Z,31.99
2022-08-06T14:41:00.868Z,32.67
2022-08-06T14:43:56.162Z,33.43
2022-08-06T14:46:29.652Z,33.44
2022-08-06T14:48:59.663Z,33.25
2022-08-06T14:51:37.710Z,32.64
2022-08-06T14:54:18.546Z,32.64
2022-08-06T14:56:52.699Z,32.96
2022-08-06T14:59:23.300Z,33.11
2022-08-06T15:01:52.704Z,32.76
2022-08-06T15:04:24.028Z,32.94
2022-08-06T15:06:57.476Z,33.12
2022-08-06T15:09:28.379Z,33.29
2022-08-06T15:12:34.493Z,33.43
2022-08-06T15:15:06.390Z,33.66
2022-08-06T15:18:03.745Z,33.63
2022-08-06T15:20:26.281Z,33.87
2022-08-06T15:22:56.042Z,33.61
2022-08-06T15:26:01.857Z,33.93
2022-08-06T15:28:12.656Z,33.76
2022-08-06T15:30:46.771Z,34.26
2022-08-06T15:33:15.377Z,34.07
2022-08-06T15:35:57.957Z,33.90
2022-08-06T15:38:27.362Z,34.42
2022-08-06T15:40:55.352Z,34.39
2022-08-06T15:43:24.984Z,35.11
2022-08-06T15:45:58.601Z,35.17
2022-08-06T15:48:28.876Z,34.70
2022-08-06T15:51:28.344Z,35.08
2022-08-06T15:53:54.448Z,34.62
2022-08-06T15:56:38.456Z,35.03
2022-08-06T15:59:12.328Z,35.11
2022-08-06T16:01:52.113Z,35.14
2022-08-06T16:04:23.279Z,34.83
2022-08-06T16:06:51.436Z,35.49
2022-08-06T16:09:27.104Z,35.35
2022-08-06T16:11:56.467Z,35.80
2022-08-06T16:14:32.921Z,35.64
2022-08-06T16:17:09.810Z,35.82
2022-08-06T16:19:49.269Z,35.95
2022-08-06T16:22:18.963Z,36.12
2022-08-06T16:24:48.750Z,36.33
2022-08-06T16:27:17.739Z,36.54
2022-08-06T16:29:49.307Z,37.00
2022-08-06T16:32:25.134Z,36.92
2022-08-06T16:34:59.128Z,37.57
2022-08-06T16:37:33.263Z,37.18
2022-08-06T16:40:09.107Z,37.77
2022-08-06T16:42:37.236Z,37.65
2022-08-06T16:45:11.617Z,38.51
2022-08-06T16:48:18.528Z,38.81
2022-08-06T16:50:37.047Z,38.96
2022-08-06T16:54:08.228Z,39.32
2022-08-06T16:55:55.330Z,39.01
2022-08-06T16:58:34.361Z,39.44
2022-08-06T17:02:13.310Z,39.16
2022-08-06T17:03:56.448Z,39.56
2022-08-06T17:06:29.666Z,40.09
2022-08-06T17:08:57.720Z,40.37
2022-08-06T17:11:46.277Z,40.72
2022-08-06T17:14:14.199Z,41.16
2022-08-06T17:16:45.062Z,41.18
2022-08-06T17:19:16.214Z,41.07
2022-08-06T17:21:58.966Z,41.46
2022-08-06T17:24:36.589Z,42.11
2022-08-06T17:27:08.694Z,42.81
2022-08-06T17:32:32.216Z,43.35
2022-08-06T17:37:54.496Z,44.66
2022-08-06T17:40:30.703Z,44.36
2022-08-06T17:43:04.701Z,44.63
2022-08-06T17:45:33.095Z,44.69
2022-08-06T17:48:03.202Z,44.67
2022-08-06T17:50:40.584Z,44.95
2022-08-06T17:53:19.028Z,45.06
2022-08-06T17:56:00.442Z,45.79
2022-08-06T17:58:38.051Z,46.13
2022-08-06T18:01:43.825Z,46.41
2022-08-06T18:04:21.288Z,46.83
2022-08-06T18:07:12.325Z,47.31
2022-08-06T18:10:17.012Z,48.13
2022-08-06T18:12:48.532Z,48.35
2022-08-06T18:15:17.508Z,48.92
2022-08-06T18:17:47.835Z,48.99
2022-08-06T18:20:38.699Z,49.53
2022-08-06T18:23:20.504Z,50.20
2022-08-06T18:25:56.960Z,50.24
2022-08-06T18:28:27.187Z,50.43
2022-08-06T18:31:04.645Z,50.73
2022-08-06T18:33:33.044Z,51.26
2022-08-06T18:36:01.197Z,51.47
2022-08-06T18:38:36.575Z,51.56
2022-08-06T18:41:15.066Z,51.81
2022-08-06T18:43:55.479Z,52.11
2022-08-06T18:47:00.864Z,52.21
2022-08-06T18:49:16.754Z,52.70
2022-08-06T18:51:48.627Z,53.28
2022-08-06T18:54:23.636Z,53.27
2022-08-06T18:56:53.148Z,53.65
2022-08-06T18:59:28.360Z,53.91
2022-08-06T19:01:58.470Z,53.84
2022-08-06T19:04:29.137Z,53.88
2022-08-06T19:07:00.070Z,54.05
2022-08-06T19:09:34.024Z,54.47
2022-08-06T19:12:12.077Z,54.98
2022-08-06T19:14:43.920Z,55.44
2022-08-06T19:17:14.939Z,55.56
2022-08-06T19:19:59.048Z,55.79
2022-08-06T19:22:31.539Z,56.22
2022-08-06T19:25:09.194Z,56.38
2022-08-06T19:28:07.317Z,57.03
2022-08-06T19:30:40.876Z,57.55
2022-08-06T19:33:16.177Z,57.67
2022-08-06T19:36:03.165Z,58.32
2022-08-06T19:38:33.331Z,58.58
2022-08-06T19:41:02.994Z,59.44
2022-08-06T19:44:27.237Z,59.99
2022-08-06T19:46:34.219Z,60.88
2022-08-06T19:49:03.480Z,61.24
2022-08-06T19:52:02.605Z,61.25
2022-08-06T19:54:25.858Z,61.73
2022-08-06T19:56:57.192Z,62.01
2022-08-06T20:00:52.028Z,62.02
2022-08-06T20:02:15.473Z,62.37
2022-08-06T20:04:44.171Z,62.92
2022-08-06T20:07:34.179Z,63.76
2022-08-06T20:10:03.446Z,64.38
2022-08-06T20:12:38.630Z,64.59
2022-08-06T20:15:08.721Z,65.34
2022-08-06T20:17:49.619Z,65.94
2022-08-06T20:20:29.128Z,66.26
2022-08-06T20:23:08.740Z,66.52
2022-08-06T20:26:10.529Z,66.93
2022-08-06T20:29:10.054Z,67.32
2022-08-06T20:31:22.573Z,67.82
2022-08-06T20:33:58.638Z,67.98
2022-08-06T20:36:29.623Z,68.47
2022-08-06T20:38:58.315Z,69.16
2022-08-06T20:42:03.477Z,69.54
2022-08-06T20:44:18.154Z,70.35
2022-08-06T20:47:45.482Z,70.59
2022-08-06T20:50:03.363Z,70.92
2022-08-06T20:52:24.345Z,71.57
2022-08-06T20:54:53.155Z,71.95
2022-08-06T20:57:26.652Z,72.10
2022-08-06T20:59:59.466Z,72.47
2022-08-06T21:02:31.748Z,72.89
2022-08-06T21:05:14.387Z,73.15
2022-08-06T21:07:50.980Z,73.59
2022-08-06T21:10:26.757Z,73.99
2022-08-06T21:13:01.622Z,74.20
2022-08-06T21:15:56.241Z,74.75
2022-08-06T21:18:21.199Z,74.92
2022-08-06T21:20:51.462Z,75.17
2022-08-06T21:23:21.290Z,75.49
2022-08-06T21:25:58.403Z,75.72
2022-08-06T21:28:27.351Z,75.88
2022-08-06T21:30:59.308Z,75.95
2022-08-06T21:33:27.683Z,76.11
2022-08-06T21:35:57.383Z,76.51
2022-08-06T21:38:26.295Z,76.73
2022-08-06T21:40:56.345Z,77.02
2022-08-06T21:43:29.280Z,77.14
2022-08-06T21:46:27.542Z,77.61
2022-08-06T21:48:56.829Z,78.03
2022-08-06T21:51:35.456Z,78.21
2022-08-06T21:54:04.649Z,78.49
2022-08-06T21:56:39.311Z,78.56
2022-08-06T21:59:12.616Z,78.71
2022-08-06T22:02:13.557Z,79.07
2022-08-06T22:04:37.775Z,79.27
2022-08-06T22:07:14.513Z,79.45
2022-08-06T22:09:45.238Z,79.83
2022-08-06T22:12:36.637Z,80.05
2022-08-06T22:15:02.771Z,80.37
2022-08-06T22:17:59.908Z,80.35
2022-08-06T22:20:21.546Z,80.54
2022-08-06T22:22:52.415Z,80.72
2022-08-06T22:25:24.872Z,80.91
2022-08-06T22:27:55.541Z,81.53
2022-08-06T22:30:37.553Z,81.74
2022-08-06T22:33:14.514Z,82.05
2022-08-06T22:35:57.510Z,82.18
2022-08-06T22:38:32.117Z,82.51
2022-08-06T22:41:00.812Z,82.77
2022-08-06T22:43:52.040Z,83.13
2022-08-06T22:46:17.379Z,83.33
2022-08-06T22:48:47.440Z,83.50
2022-08-06T22:51:19.308Z,83.40
2022-08-06T22:54:26.539Z,83.88
2022-08-06T22:57:04.923Z,84.24
2022-08-06T23:00:12.365Z,84.47
2022-08-06T23:02:20.355Z,84.79
2022-08-06T23:04:51.686Z,84.76
2022-08-06T23:07:21.424Z,85.31
2022-08-06T23:09:54.152Z,85.16
2022-08-06T23:12:31.749Z,85.39
2022-08-06T23:15:07.683Z,85.91
2022-08-06T23:17:56.574Z,85.99
2022-08-06T23:20:32.824Z,86.25
2022-08-06T23:23:03.147Z,86.34
2022-08-06T23:25:59.931Z,86.54
2022-08-06T23:28:22.830Z,86.93
2022-08-06T23:30:52.099Z,87.33
2022-08-06T23:33:19.910Z,87.59
2022-08-06T23:35:49.117Z,88.00
2022-08-06T23:38:33.906Z,88.01
2022-08-06T23:41:02.433Z,88.47
2022-08-06T23:43:44.166Z,88.71
2022-08-06T23:46:11.999Z,88.92
2022-08-06T23:48:45.154Z,88.94
2022-08-06T23:52:01.027Z,89.32
2022-08-06T23:54:23.206Z,89.81
2022-08-06T23:56:57.484Z,90.10
2022-08-06T23:59:44.442Z,90.13
